Time;durP1;ratioP1;P1;durP2;ratioP2;P2;SDS_P1;SDS_P2;PMS_P1;PMS_P2;Temp;Humidity;BMP_temperature;BMP_pressure;BME280_temperature;BME280_humidity;BME280_pressure;Samples;Min_cycle;Max_cycle;Signal;HPM_P1;HPM_P2
2021/03/27 00:01:05;;;;;;;8.27;6.30;;;12.50;99.90;;;;;;5056311;28;20040;-57
2021/03/27 00:03:38;;;;;;;10.27;6.35;;;12.60;99.90;;;;;;5055529;28;20479;-58
2021/03/27 00:06:16;;;;;;;9.48;5.55;;;12.60;99.90;;;;;;5056767;28;20041;-57
2021/03/27 00:09:00;;;;;;;12.05;6.55;;;12.50;99.90;;;;;;5055065;28;20052;-57
2021/03/27 00:11:38;;;;;;;10.07;6.25;;;12.50;99.90;;;;;;5055554;28;20036;-58
2021/03/27 00:14:08;;;;;;;6.80;5.55;;;12.50;99.90;;;;;;5056400;28;20409;-58
2021/03/27 00:16:42;;;;;;;8.75;6.20;;;12.50;99.90;;;;;;5056357;28;20029;-60
2021/03/27 00:19:37;;;;;;;8.73;6.00;;;12.50;99.90;;;;;;5055196;28;20061;-57
2021/03/27 00:22:14;;;;;;;8.75;6.40;;;12.50;99.90;;;;;;5055113;28;20056;-57
2021/03/27 00:24:42;;;;;;;8.20;6.32;;;12.40;99.90;;;;;;5056436;28;20059;-59
2021/03/27 00:27:15;;;;;;;8.38;5.88;;;12.40;99.90;;;;;;5056305;28;20036;-65
2021/03/27 00:29:45;;;;;;;10.15;5.75;;;12.40;93.50;;;;;;5056230;28;20438;-57
2021/03/27 00:32:19;;;;;;;10.60;5.80;;;12.40;93.40;;;;;;5057206;28;20028;-58
2021/03/27 00:34:50;;;;;;;8.93;5.93;;;12.30;93.40;;;;;;5055354;28;20471;-59
2021/03/27 00:37:22;;;;;;;7.15;5.63;;;12.30;93.40;;;;;;5055458;28;20109;-60
2021/03/27 00:39:52;;;;;;;6.75;5.75;;;12.20;93.70;;;;;;5053745;28;20036;-57
2021/03/27 00:42:23;;;;;;;13.27;6.13;;;12.20;93.80;;;;;;5056227;28;20029;-58
2021/03/27 00:44:54;;;;;;;;;;;12.20;93.90;;;;;;5056145;28;20375;-64
2021/03/27 00:47:26;;;;;;;8.23;5.80;;;12.30;93.70;;;;;;5054213;28;19915;-59
2021/03/27 00:49:58;;;;;;;9.65;6.63;;;12.20;93.80;;;;;;5054414;28;20029;-58
2021/03/27 00:52:27;;;;;;;10.45;6.38;;;12.30;93.60;;;;;;5055607;28;20037;-59
2021/03/27 00:55:01;;;;;;;10.65;6.13;;;12.30;93.80;;;;;;5053467;28;20035;-58
2021/03/27 00:57:31;;;;;;;9.70;5.80;;;12.40;93.50;;;;;;5054896;28;20032;-58
2021/03/27 00:59:56;;;;;;;8.02;5.85;;;12.40;93.40;;;;;;5054777;28;20481;-57
2021/03/27 01:02:23;;;;;;;10.73;6.63;;;12.40;93.60;;;;;;5053357;28;20028;-59
2021/03/27 01:04:49;;;;;;;8.73;5.68;;;12.40;93.50;;;;;;5054368;28;20052;-64
2021/03/27 01:07:19;;;;;;;10.38;6.00;;;12.40;93.50;;;;;;5053546;28;20021;-60
2021/03/27 01:09:47;;;;;;;12.45;6.15;;;12.40;93.60;;;;;;5052687;28;20040;-58
2021/03/27 01:12:19;;;;;;;16.95;6.72;;;12.40;93.70;;;;;;5054701;28;20068;-61
2021/03/27 01:14:52;;;;;;;10.25;6.18;;;12.30;93.70;;;;;;5052654;28;20048;-61
2021/03/27 01:17:22;;;;;;;10.82;5.75;;;12.40;93.70;;;;;;5053245;28;20058;-66
2021/03/27 01:19:53;;;;;;;10.05;6.25;;;12.40;93.60;;;;;;5036294;28;20041;-58
2021/03/27 01:22:20;;;;;;;55.22;10.63;;;12.40;93.70;;;;;;5034953;28;20029;-57
2021/03/27 01:24:47;;;;;;;9.35;6.18;;;12.40;93.50;;;;;;5034383;28;20037;-60
2021/03/27 01:27:34;;;;;;;11.68;6.18;;;12.40;93.40;;;;;;5017643;28;20079;-63
2021/03/27 01:30:06;;;;;;;7.93;6.03;;;12.40;93.50;;;;;;5035343;28;20033;-58
2021/03/27 01:32:41;;;;;;;8.98;5.68;;;12.40;93.70;;;;;;5035073;28;20034;-65
2021/03/27 01:35:13;;;;;;;8.63;5.90;;;12.40;93.50;;;;;;5035279;28;20064;-56
2021/03/27 01:38:08;;;;;;;11.45;6.40;;;12.50;93.50;;;;;;5016184;28;20033;-58
2021/03/27 01:41:04;;;;;;;12.18;6.13;;;12.40;93.60;;;;;;5033601;28;20029;-56
2021/03/27 01:43:48;;;;;;;9.73;6.07;;;12.40;93.60;;;;;;5034054;28;20029;-57
2021/03/27 01:46:26;;;;;;;10.00;5.70;;;12.50;93.50;;;;;;5016458;28;20388;-57
2021/03/27 01:49:02;;;;;;;14.27;7.53;;;12.50;93.50;;;;;;5034227;28;20036;-59
2021/03/27 01:51:44;;;;;;;10.73;7.00;;;12.40;93.50;;;;;;5033718;28;20466;-58
2021/03/27 01:54:13;;;;;;;12.57;6.53;;;12.50;93.60;;;;;;5034007;28;20029;-57
2021/03/27 01:56:59;;;;;;;10.48;7.00;;;12.30;93.80;;;;;;5033272;28;20033;-58
2021/03/27 01:59:54;;;;;;;10.10;7.28;;;12.40;93.90;;;;;;5017612;28;20022;-57
2021/03/27 02:02:42;;;;;;;11.68;6.82;;;12.30;93.90;;;;;;5031813;28;20045;-58
2021/03/27 02:05:13;;;;;;;8.60;5.82;;;12.30;94.20;;;;;;5033669;28;20030;-58
2021/03/27 02:08:00;;;;;;;9.85;6.78;;;12.30;94.80;;;;;;5032691;28;20025;-56
2021/03/27 02:10:37;;;;;;;12.00;7.28;;;12.20;95.70;;;;;;5015857;28;20033;-56
2021/03/27 02:13:21;;;;;;;8.18;6.07;;;12.20;96.20;;;;;;5033275;28;20025;-56
2021/03/27 02:16:05;;;;;;;14.65;5.90;;;12.10;96.20;;;;;;5015150;28;20041;-57
2021/03/27 02:18:34;;;;;;;9.07;6.60;;;12.20;96.50;;;;;;5032902;28;20054;-57
2021/03/27 02:21:19;;;;;;;11.25;6.22;;;12.20;97.00;;;;;;5014884;28;20474;-57
2021/03/27 02:24:07;;;;;;;12.07;5.93;;;12.10;96.60;;;;;;5032591;28;20101;-56
2021/03/27 02:26:50;;;;;;;9.57;6.30;;;12.10;97.10;;;;;;5033061;28;20471;-58
2021/03/27 02:29:40;;;;;;;9.63;5.40;;;12.10;97.00;;;;;;5032779;28;20030;-56
2021/03/27 02:32:15;;;;;;;7.82;5.03;;;12.10;97.00;;;;;;5034007;28;20072;-59
2021/03/27 02:35:05;;;;;;;9.70;5.60;;;12.10;97.20;;;;;;5033222;28;20067;-57
2021/03/27 02:37:45;;;;;;;15.15;6.05;;;12.10;97.10;;;;;;5035289;28;20025;-58
2021/03/27 02:40:25;;;;;;;5.75;4.80;;;12.10;97.30;;;;;;5018503;28;20029;-57
2021/03/27 02:43:21;;;;;;;6.22;4.32;;;12.10;96.80;;;;;;5014828;28;20044;-58
2021/03/27 02:46:02;;;;;;;5.25;3.75;;;12.20;97.20;;;;;;5031922;28;20041;-56
2021/03/27 02:48:57;;;;;;;5.60;3.47;;;12.20;96.20;;;;;;5032945;28;20026;-57
2021/03/27 02:51:27;;;;;;;7.90;3.33;;;12.10;96.10;;;;;;5032841;28;20025;-57
2021/03/27 02:54:05;;;;;;;9.52;3.10;;;12.20;96.20;;;;;;5032389;28;20029;-57
2021/03/27 02:56:56;;;;;;;6.75;3.22;;;12.20;96.10;;;;;;5032650;28;20025;-57
2021/03/27 02:59:47;;;;;;;7.60;2.80;;;12.10;96.10;;;;;;5033123;28;20041;-58
2021/03/27 03:02:18;;;;;;;4.65;2.72;;;12.20;96.20;;;;;;5023746;28;20048;-57
2021/03/27 03:05:19;;;;;;;5.35;3.25;;;12.20;96.30;;;;;;5014475;28;20156;-57
2021/03/27 03:07:57;;;;;;;6.97;4.07;;;12.10;96.60;;;;;;5010860;28;20041;-58
2021/03/27 03:10:41;;;;;;;6.28;3.45;;;12.00;97.00;;;;;;5014954;28;20034;-62
2021/03/27 03:13:45;;;;;;;4.78;3.58;;;12.10;97.30;;;;;;5015674;28;20033;-59
2021/03/27 03:16:41;;;;;;;5.90;3.70;;;12.00;97.30;;;;;;4962056;28;20151;-61
2021/03/27 03:19:20;;;;;;;4.28;3.42;;;12.00;97.70;;;;;;5032666;28;20056;-59
2021/03/27 03:22:02;;;;;;;4.45;3.63;;;11.80;97.50;;;;;;5032512;28;20402;-62
2021/03/27 03:25:00;;;;;;;4.60;2.85;;;11.70;97.70;;;;;;5032880;28;20532;-67
2021/03/27 03:27:49;;;;;;;8.65;3.38;;;11.60;97.70;;;;;;5031611;28;20041;-56
2021/03/27 03:30:30;;;;;;;5.97;3.35;;;11.50;98.20;;;;;;5018863;28;20026;-57
2021/03/27 03:33:24;;;;;;;3.78;2.72;;;11.50;98.40;;;;;;5035801;28;20029;-56
2021/03/27 03:36:05;;;;;;;2.53;2.00;;;11.40;98.50;;;;;;5018018;28;20021;-58
2021/03/27 03:38:45;;;;;;;6.82;1.23;;;11.30;98.30;;;;;;5036434;28;20061;-57
2021/03/27 03:41:32;;;;;;;2.03;0.98;;;11.10;96.80;;;;;;5036203;28;20029;-57
2021/03/27 03:44:31;;;;;;;1.08;0.52;;;10.80;96.90;;;;;;5035673;28;20057;-59
2021/03/27 03:47:14;;;;;;;1.05;0.30;;;10.60;97.10;;;;;;5035675;28;20026;-56
2021/03/27 03:49:51;;;;;;;3.65;0.35;;;10.60;96.90;;;;;;5035874;28;20029;-62
2021/03/27 03:52:42;;;;;;;2.20;0.17;;;10.60;96.80;;;;;;5036398;28;20030;-57
2021/03/27 03:55:18;;;;;;;0.65;0.20;;;10.30;95.80;;;;;;5036208;28;20033;-59
2021/03/27 03:57:46;;;;;;;1.92;0.15;;;10.10;95.00;;;;;;5036047;28;20108;-56
2021/03/27 04:00:37;;;;;;;1.60;0.10;;;9.80;95.10;;;;;;5036190;28;20037;-56
2021/03/27 04:03:47;;;;;;;0.30;0.10;;;9.70;94.80;;;;;;5035166;28;20414;-56
2021/03/27 04:06:31;;;;;;;1.27;0.10;;;9.70;94.70;;;;;;5025146;28;20084;-57
2021/03/27 04:09:13;;;;;;;0.20;0.10;;;9.70;95.20;;;;;;5035104;28;20053;-57
2021/03/27 04:11:51;;;;;;;0.85;0.00;;;9.90;94.90;;;;;;5035478;28;20455;-57
2021/03/27 04:14:35;;;;;;;1.65;0.22;;;9.90;94.20;;;;;;5035678;28;20033;-58
2021/03/27 04:17:15;;;;;;;2.03;0.10;;;9.90;94.10;;;;;;5035033;28;20029;-62
2021/03/27 04:19:47;;;;;;;4.75;0.00;;;9.90;93.30;;;;;;5035511;28;20495;-56
2021/03/27 04:22:28;;;;;;;0.25;0.10;;;9.80;93.50;;;;;;5035494;28;20057;-57
2021/03/27 04:25:05;;;;;;;0.30;0.10;;;9.80;93.40;;;;;;5034846;28;20029;-57
2021/03/27 04:27:37;;;;;;;0.93;0.20;;;9.80;93.20;;;;;;5035458;28;20536;-56
2021/03/27 04:30:24;;;;;;;2.90;0.10;;;9.70;93.40;;;;;;5017434;28;20690;-66
2021/03/27 04:32:55;;;;;;;0.38;0.10;;;9.80;93.20;;;;;;5034855;28;20029;-58
2021/03/27 04:35:27;;;;;;;1.38;0.00;;;9.70;93.00;;;;;;5035822;28;20025;-67
2021/03/27 04:38:08;;;;;;;0.40;0.00;;;9.70;93.10;;;;;;5035081;28;20056;-57
2021/03/27 04:40:45;;;;;;;0.30;0.10;;;9.80;92.70;;;;;;5018499;28;20462;-57
2021/03/27 04:43:14;;;;;;;0.30;0.00;;;9.60;93.00;;;;;;5018599;28;20037;-61
2021/03/27 04:46:06;;;;;;;0.45;0.15;;;9.70;92.90;;;;;;5035541;28;20021;-57
2021/03/27 04:48:40;;;;;;;1.25;0.20;;;9.60;92.70;;;;;;5035210;28;20482;-56
2021/03/27 04:51:39;;;;;;;2.78;0.10;;;9.40;92.80;;;;;;5035071;28;20490;-57
2021/03/27 04:54:39;;;;;;;1.17;0.10;;;9.30;93.30;;;;;;5036801;28;20030;-61
2021/03/27 04:57:14;;;;;;;0.40;0.20;;;9.40;93.40;;;;;;5017885;28;20041;-59
2021/03/27 05:00:10;;;;;;;2.25;0.13;;;9.20;93.60;;;;;;5035472;28;20033;-56
2021/03/27 05:02:46;;;;;;;0.98;0.13;;;9.20;93.70;;;;;;5036135;28;20030;-56
2021/03/27 05:05:45;;;;;;;3.30;0.10;;;9.20;93.50;;;;;;5035748;28;20064;-60
2021/03/27 05:08:36;;;;;;;0.35;0.10;;;9.10;93.30;;;;;;5037484;28;20056;-57
2021/03/27 05:11:33;;;;;;;0.22;0.10;;;9.10;93.40;;;;;;5019117;28;20052;-60
2021/03/27 05:14:27;;;;;;;1.25;0.20;;;9.20;93.10;;;;;;5036412;28;20083;-56
2021/03/27 05:17:09;;;;;;;3.17;0.52;;;9.10;92.80;;;;;;5018431;28;20025;-58
2021/03/27 05:19:38;;;;;;;;;;;9.00;92.70;;;;;;5037106;28;20077;-57
2021/03/27 05:22:42;;;;;;;5.25;0.30;;;8.80;92.80;;;;;;5016953;28;20293;-59
2021/03/27 05:25:38;;;;;;;4.68;0.40;;;8.80;92.80;;;;;;5035229;28;20026;-57
2021/03/27 05:28:33;;;;;;;4.25;0.20;;;8.70;93.20;;;;;;5017653;28;20501;-58
2021/03/27 05:31:07;;;;;;;1.38;0.35;;;8.70;92.90;;;;;;4954076;29;20040;-58
2021/03/27 05:33:59;;;;;;;0.73;0.10;;;8.80;93.40;;;;;;4955024;29;20043;-58
2021/03/27 05:36:31;;;;;;;0.38;0.20;;;8.90;93.20;;;;;;4953891;29;20130;-57
2021/03/27 05:39:18;;;;;;;1.10;0.35;;;8.70;93.20;;;;;;4955593;29;20050;-61
2021/03/27 05:41:56;;;;;;;1.60;0.13;;;8.90;93.20;;;;;;4955500;29;20047;-57
2021/03/27 05:44:46;;;;;;;0.20;0.10;;;8.90;93.10;;;;;;4954221;29;20031;-58
2021/03/27 05:47:49;;;;;;;0.85;0.20;;;9.00;93.00;;;;;;4953058;29;20035;-58
2021/03/27 05:50:56;;;;;;;0.60;0.38;;;9.00;93.10;;;;;;4952726;29;20035;-58
2021/03/27 05:53:49;;;;;;;0.57;0.03;;;8.80;93.10;;;;;;4952959;29;20114;-57
2021/03/27 05:56:51;;;;;;;1.45;0.20;;;8.70;93.00;;;;;;4953982;29;20058;-58
2021/03/27 05:59:22;;;;;;;;;;;8.70;93.20;;;;;;4953885;29;20070;-57
2021/03/27 06:02:04;;;;;;;1.00;0.40;;;8.70;93.50;;;;;;4953069;29;20372;-59
2021/03/27 06:04:50;;;;;;;0.22;0.10;;;8.70;93.60;;;;;;4953041;29;20039;-58
2021/03/27 06:07:22;;;;;;;2.50;0.30;;;8.70;93.60;;;;;;4967646;28;20040;-58
2021/03/27 06:10:09;;;;;;;2.47;0.80;;;8.70;93.90;;;;;;5033716;28;20033;-57
2021/03/27 06:13:22;;;;;;;3.70;0.45;;;8.70;93.80;;;;;;5033377;28;20029;-56
2021/03/27 06:16:18;;;;;;;2.35;0.30;;;8.90;93.80;;;;;;4962373;28;20039;-57
2021/03/27 06:19:12;;;;;;;4.65;0.52;;;8.80;93.80;;;;;;5028732;28;20399;-59
2021/03/27 06:22:22;;;;;;;2.60;0.20;;;8.80;93.80;;;;;;5053203;28;20024;-58
2021/03/27 06:25:16;;;;;;;1.10;0.20;;;8.70;93.70;;;;;;5053246;28;20021;-61
2021/03/27 06:28:10;;;;;;;1.90;0.22;;;8.60;94.10;;;;;;5062397;28;20090;-59
2021/03/27 06:30:56;;;;;;;2.90;0.17;;;8.30;93.90;;;;;;5071928;28;20280;-57
2021/03/27 06:33:22;;;;;;;1.80;0.30;;;8.40;93.70;;;;;;5073409;28;20028;-57
2021/03/27 06:36:06;;;;;;;1.15;0.20;;;9.50;94.10;;;;;;5071527;28;20377;-56
2021/03/27 06:38:52;;;;;;;1.23;0.10;;;9.30;92.70;;;;;;5071342;28;20428;-58
2021/03/27 06:41:18;;;;;;;0.75;0.30;;;9.40;92.40;;;;;;5072002;28;20033;-57
2021/03/27 06:43:59;;;;;;;2.47;0.55;;;9.20;92.10;;;;;;5072305;28;20035;-57
2021/03/27 06:46:38;;;;;;;1.20;0.20;;;9.30;91.90;;;;;;5072241;28;20077;-59
2021/03/27 06:49:42;;;;;;;3.60;0.20;;;9.20;92.10;;;;;;5070469;28;20032;-58
2021/03/27 06:52:13;;;;;;;0.75;0.20;;;9.10;92.40;;;;;;5071579;28;20059;-57
2021/03/27 06:54:51;;;;;;;2.67;0.52;;;8.90;92.80;;;;;;5072250;28;20533;-61
2021/03/27 06:57:48;;;;;;;2.55;0.40;;;9.10;92.50;;;;;;5071404;28;20073;-57
2021/03/27 07:00:35;;;;;;;3.47;0.60;;;8.90;92.50;;;;;;5070933;28;20458;-58
2021/03/27 07:03:39;;;;;;;1.10;0.35;;;8.80;91.90;;;;;;5071233;28;20389;-56
2021/03/27 07:06:49;;;;;;;3.80;0.32;;;8.80;91.10;;;;;;5070123;28;20025;-56
2021/03/27 07:09:52;;;;;;;5.72;0.50;;;9.10;90.40;;;;;;5048607;28;20643;-61
2021/03/27 07:12:56;;;;;;;3.40;0.50;;;9.50;89.40;;;;;;5070294;28;20028;-57
2021/03/27 07:15:44;;;;;;;1.42;0.40;;;9.50;87.70;;;;;;5070583;28;20075;-57
2021/03/27 07:18:40;;;;;;;3.03;0.38;;;9.50;88.70;;;;;;5069776;28;20075;-56
2021/03/27 07:21:26;;;;;;;3.15;0.38;;;9.50;88.90;;;;;;5070088;28;20127;-58
2021/03/27 07:24:01;;;;;;;1.73;0.40;;;9.50;88.90;;;;;;5071947;28;20032;-60
2021/03/27 07:26:54;;;;;;;5.30;0.68;;;9.70;87.50;;;;;;5070866;28;20028;-57
2021/03/27 07:29:34;;;;;;;5.00;0.52;;;9.50;88.10;;;;;;5071654;28;20115;-58
2021/03/27 07:32:18;;;;;;;5.03;0.60;;;9.40;88.50;;;;;;5070061;28;20031;-57
2021/03/27 07:34:53;;;;;;;2.45;0.85;;;9.50;87.20;;;;;;5070824;28;20031;-57
2021/03/27 07:37:55;;;;;;;3.88;0.68;;;9.40;86.50;;;;;;5071637;28;20028;-56
2021/03/27 07:40:51;;;;;;;4.75;0.70;;;9.40;86.10;;;;;;5070335;28;20449;-58
2021/03/27 07:43:16;;;;;;;4.57;0.60;;;9.30;86.10;;;;;;5071569;28;20153;-58
2021/03/27 07:45:57;;;;;;;5.22;0.73;;;8.90;85.60;;;;;;5072746;28;20450;-57
2021/03/27 07:48:44;;;;;;;2.00;0.35;;;9.00;86.00;;;;;;5070440;28;20115;-58
2021/03/27 07:51:40;;;;;;;3.70;1.02;;;8.80;86.20;;;;;;5070236;28;20029;-60
2021/03/27 07:54:37;;;;;;;3.58;0.50;;;8.80;86.10;;;;;;5071286;28;20028;-60
2021/03/27 07:57:12;;;;;;;3.58;0.95;;;8.80;85.50;;;;;;5071221;28;20137;-58
2021/03/27 07:59:58;;;;;;;5.57;0.70;;;9.00;85.80;;;;;;5070670;28;20029;-57
2021/03/27 08:02:41;;;;;;;4.72;0.80;;;8.90;86.10;;;;;;5071884;28;20040;-57
2021/03/27 08:05:35;;;;;;;6.35;0.85;;;9.00;85.80;;;;;;5069820;28;20529;-60
2021/03/27 08:08:34;;;;;;;3.10;0.80;;;9.20;84.70;;;;;;5071957;28;20466;-62
2021/03/27 08:11:14;;;;;;;5.28;0.50;;;8.90;84.00;;;;;;5071305;28;20060;-63
2021/03/27 08:14:19;;;;;;;3.15;0.68;;;8.90;83.00;;;;;;5074118;28;20047;-58
2021/03/27 08:17:24;;;;;;;3.42;0.63;;;9.00;83.10;;;;;;5075922;28;20036;-63
2021/03/27 08:20:26;;;;;;;3.17;0.90;;;9.20;82.20;;;;;;5057964;28;20045;-60
2021/03/27 08:23:06;;;;;;;10.50;1.25;;;9.30;82.30;;;;;;5056069;28;20025;-61
2021/03/27 08:25:56;;;;;;;4.22;0.60;;;9.40;81.10;;;;;;5055393;28;20021;-58
2021/03/27 08:28:40;;;;;;;4.88;0.90;;;9.30;80.80;;;;;;5054537;28;20033;-62
2021/03/27 08:31:40;;;;;;;8.18;2.05;;;9.20;81.20;;;;;;5054586;28;20029;-58
2021/03/27 08:34:21;;;;;;;4.40;1.00;;;9.20;81.60;;;;;;5054082;28;20029;-58
2021/03/27 08:37:10;;;;;;;4.03;0.70;;;9.10;82.20;;;;;;5055921;28;20052;-60
2021/03/27 08:39:54;;;;;;;2.22;0.70;;;9.20;82.30;;;;;;5056092;28;20037;-57
2021/03/27 08:42:59;;;;;;;10.02;0.90;;;8.90;81.70;;;;;;5037946;28;20028;-57
2021/03/27 08:45:50;;;;;;;3.60;0.60;;;8.90;82.30;;;;;;5055640;28;20033;-58
2021/03/27 08:48:43;;;;;;;4.35;0.93;;;9.10;82.10;;;;;;5054912;28;20029;-58
2021/03/27 08:51:53;;;;;;;2.88;0.55;;;9.10;81.60;;;;;;5036583;28;20029;-57
2021/03/27 08:54:53;;;;;;;3.70;0.68;;;9.10;81.50;;;;;;5022968;28;20047;-60
2021/03/27 08:57:31;;;;;;;5.90;0.75;;;9.40;81.10;;;;;;5035769;28;20031;-58
2021/03/27 09:00:24;;;;;;;7.97;1.10;;;9.50;79.90;;;;;;5036165;28;20138;-58
2021/03/27 09:03:39;;;;;;;3.53;0.52;;;9.50;80.10;;;;;;5036342;28;20485;-58
2021/03/27 09:06:20;;;;;;;3.67;0.65;;;9.50;80.00;;;;;;5035469;28;20116;-57
2021/03/27 09:09:16;;;;;;;8.98;1.10;;;9.60;79.70;;;;;;5036937;28;20029;-58
2021/03/27 09:12:03;;;;;;;4.68;1.27;;;9.50;79.30;;;;;;5036592;28;20062;-58
2021/03/27 09:14:46;;;;;;;8.65;0.80;;;9.40;79.70;;;;;;5054533;28;20032;-60
2021/03/27 09:17:46;;;;;;;3.95;1.02;;;9.40;79.90;;;;;;5053515;28;20425;-58
2021/03/27 09:20:28;;;;;;;8.38;0.82;;;9.40;80.50;;;;;;5015330;28;20083;-59
2021/03/27 09:23:16;;;;;;;5.43;0.77;;;9.40;81.30;;;;;;5049293;28;20025;-57
2021/03/27 09:26:16;;;;;;;13.23;1.83;;;9.40;81.40;;;;;;5054129;28;20088;-58
2021/03/27 09:29:20;;;;;;;5.22;1.15;;;9.60;81.60;;;;;;5036259;28;20095;-59
2021/03/27 09:31:52;;;;;;;5.10;1.02;;;10.00;80.70;;;;;;5037396;28;20033;-63
2021/03/27 09:34:23;;;;;;;;;;;10.60;79.40;;;;;;5033243;28;20104;-63
2021/03/27 09:37:13;;;;;;;6.78;0.55;;;11.10;77.90;;;;;;5033233;28;19905;-57
2021/03/27 09:40:13;;;;;;;4.13;0.85;;;10.90;77.70;;;;;;5033037;28;20033;-58
2021/03/27 09:43:16;;;;;;;3.95;0.70;;;10.60;79.00;;;;;;5015492;28;20030;-63
2021/03/27 09:45:54;;;;;;;4.00;0.60;;;10.20;79.80;;;;;;5015807;28;20107;-59
2021/03/27 09:48:30;;;;;;;8.30;0.93;;;9.90;80.90;;;;;;5032835;28;20026;-57
2021/03/27 09:51:31;;;;;;;9.93;1.27;;;9.80;81.20;;;;;;5017673;28;20360;-58
2021/03/27 09:54:22;;;;;;;7.20;2.05;;;9.90;80.60;;;;;;5041286;28;20415;-59
2021/03/27 09:57:04;;;;;;;3.00;0.50;;;10.10;80.10;;;;;;5035426;28;20171;-58
2021/03/27 10:00:34;;;;;;;5.95;1.38;;;10.40;79.10;;;;;;5040169;28;20101;-59
2021/03/27 10:03:19;;;;;;;5.15;1.25;;;10.60;78.90;;;;;;4931000;29;20042;-57
2021/03/27 10:05:54;;;;;;;10.73;0.60;;;10.50;78.10;;;;;;4956067;28;20477;-56
2021/03/27 10:08:37;;;;;;;3.60;0.82;;;10.40;77.50;;;;;;5011780;28;20033;-59
2021/03/27 10:11:12;;;;;;;8.20;0.82;;;10.50;77.60;;;;;;5036501;28;20109;-64
2021/03/27 10:14:15;;;;;;;5.05;1.05;;;10.60;76.90;;;;;;5033473;28;20495;-61
2021/03/27 10:16:48;;;;;;;8.60;0.85;;;10.80;76.60;;;;;;5028574;28;20163;-57
2021/03/27 10:19:17;;;;;;;10.20;1.65;;;10.60;77.30;;;;;;5053465;28;20479;-58
2021/03/27 10:22:27;;;;;;;6.55;1.00;;;10.50;79.40;;;;;;5035793;28;20022;-58
2021/03/27 10:25:03;;;;;;;3.95;1.00;;;11.10;79.90;;;;;;5011743;28;20089;-62
2021/03/27 10:27:48;;;;;;;2.20;0.52;;;12.80;93.80;;;;;;5037767;28;20048;-55
2021/03/27 10:30:20;;;;;;;6.45;1.25;;;13.40;84.10;;;;;;5039338;28;20155;-57
2021/03/27 10:33:10;;;;;;;2.60;0.50;;;13.50;77.10;;;;;;5022467;28;20025;-60
2021/03/27 10:35:45;;;;;;;2.70;0.45;;;12.70;78.50;;;;;;5036434;28;20063;-60
2021/03/27 10:38:34;;;;;;;6.18;1.00;;;12.40;80.00;;;;;;5019968;28;20013;-58
2021/03/27 10:41:23;;;;;;;3.55;0.80;;;12.20;80.40;;;;;;5013079;28;20479;-59
2021/03/27 10:44:24;;;;;;;2.78;0.70;;;12.20;80.40;;;;;;5027206;28;20029;-61
2021/03/27 10:46:59;;;;;;;3.42;0.73;;;12.20;81.20;;;;;;5021505;28;20049;-58
2021/03/27 10:49:53;;;;;;;2.83;0.63;;;12.00;81.50;;;;;;5019470;28;20030;-57
2021/03/27 10:52:42;;;;;;;2.30;0.50;;;12.10;82.80;;;;;;5005703;28;20033;-59
2021/03/27 10:55:30;;;;;;;1.75;0.50;;;12.50;79.50;;;;;;5039402;28;20029;-59
2021/03/27 10:58:17;;;;;;;3.47;0.60;;;13.10;77.80;;;;;;5033530;28;20069;-62
2021/03/27 11:01:01;;;;;;;4.75;0.47;;;13.00;75.80;;;;;;5052521;28;20033;-58
2021/03/27 11:03:58;;;;;;;6.70;1.38;;;12.50;76.40;;;;;;5045464;28;20443;-60
2021/03/27 11:07:12;;;;;;;2.97;0.50;;;12.20;76.80;;;;;;5036616;28;20479;-59
2021/03/27 11:10:05;;;;;;;5.65;0.80;;;12.30;79.70;;;;;;5037428;28;20494;-60
2021/03/27 11:13:07;;;;;;;2.58;0.80;;;11.50;79.30;;;;;;5048375;28;20036;-60
2021/03/27 11:15:50;;;;;;;4.07;0.82;;;11.70;79.00;;;;;;5039469;28;20033;-60
2021/03/27 11:18:53;;;;;;;3.05;0.52;;;11.40;79.40;;;;;;5022679;28;20080;-59
2021/03/27 11:21:46;;;;;;;12.98;2.42;;;11.50;80.30;;;;;;5060498;28;20037;-62
2021/03/27 11:24:12;;;;;;;8.02;1.52;;;13.40;99.90;;;;;;5064654;28;20025;-62
2021/03/27 11:26:43;;;;;;;9.80;1.83;;;13.00;93.00;;;;;;5069599;28;20059;-79
2021/03/27 11:29:34;;;;;;;7.47;1.20;;;12.70;93.40;;;;;;5052094;28;20115;-61
2021/03/27 11:32:13;;;;;;;9.50;1.77;;;12.30;74.90;;;;;;5050417;28;20029;-57
2021/03/27 11:34:47;;;;;;;8.43;2.72;;;12.40;83.90;;;;;;5056142;28;20025;-59
2021/03/27 11:37:41;;;;;;;4.45;0.90;;;12.60;74.10;;;;;;5061033;28;20074;-61
2021/03/27 11:40:28;;;;;;;3.75;0.82;;;12.10;72.90;;;;;;5069322;28;20055;-65
2021/03/27 11:43:15;;;;;;;5.53;1.05;;;11.80;72.90;;;;;;5066823;28;20425;-59
2021/03/27 11:46:08;;;;;;;6.78;1.25;;;11.50;74.60;;;;;;5050190;28;20111;-58
2021/03/27 11:48:42;;;;;;;3.53;1.25;;;11.30;76.10;;;;;;5055863;28;20040;-59
2021/03/27 11:51:15;;;;;;;6.80;0.90;;;11.20;77.30;;;;;;5053980;28;20025;-59
2021/03/27 11:53:57;;;;;;;5.70;0.77;;;11.40;75.50;;;;;;5055644;28;20120;-58
2021/03/27 11:56:38;;;;;;;4.38;0.65;;;11.20;74.70;;;;;;5056374;28;20038;-57
2021/03/27 12:02:40;;;;;;;4.45;1.05;;;10.90;73.40;;;;;;5020942;28;20120;-59
2021/03/27 12:05:29;;;;;;;4.38;0.90;;;10.90;74.20;;;;;;5054613;28;20123;-64
2021/03/27 12:08:23;;;;;;;5.38;1.02;;;11.10;74.40;;;;;;5053774;28;20040;-57
2021/03/27 12:11:07;;;;;;;5.07;0.75;;;11.50;73.20;;;;;;5060146;28;20032;-60
2021/03/27 12:13:39;;;;;;;3.63;0.60;;;11.50;71.70;;;;;;5059501;28;20074;-62
2021/03/27 12:16:14;;;;;;;10.70;0.88;;;11.60;71.40;;;;;;5076048;28;20025;-64
2021/03/27 12:18:45;;;;;;;2.22;0.70;;;11.30;70.70;;;;;;5073613;28;20056;-60
2021/03/27 12:21:27;;;;;;;2.40;0.88;;;11.50;70.40;;;;;;5072741;28;20523;-56
2021/03/27 12:24:16;;;;;;;2.95;0.77;;;11.20;69.80;;;;;;5069994;28;20044;-59
2021/03/27 12:26:54;;;;;;;4.47;1.00;;;11.00;70.30;;;;;;5054974;28;20025;-59
2021/03/27 12:29:27;;;;;;;4.30;1.05;;;11.40;70.30;;;;;;5054133;28;20060;-59
2021/03/27 12:32:16;;;;;;;3.65;1.30;;;11.70;70.00;;;;;;5054758;28;20113;-59
2021/03/27 12:35:06;;;;;;;2.63;0.68;;;11.70;70.10;;;;;;5016796;28;20116;-58
2021/03/27 12:37:38;;;;;;;4.80;0.88;;;11.50;69.70;;;;;;5056596;28;20503;-58
2021/03/27 12:40:34;;;;;;;7.30;2.10;;;11.60;69.30;;;;;;5074441;28;20037;-59
2021/03/27 12:43:13;;;;;;;6.78;1.20;;;11.60;69.00;;;;;;5073301;28;20166;-58
2021/03/27 12:45:42;;;;;;;8.70;0.95;;;11.80;69.40;;;;;;5064286;28;20070;-59
2021/03/27 12:48:23;;;;;;;6.65;1.00;;;11.80;69.50;;;;;;5061267;28;20046;-66
2021/03/27 12:51:10;;;;;;;7.70;2.28;;;11.80;69.50;;;;;;5053188;28;20330;-63
2021/03/27 12:54:00;;;;;;;2.00;0.65;;;11.50;70.00;;;;;;5061481;28;20044;-60
2021/03/27 12:56:39;;;;;;;2.88;0.73;;;11.50;70.50;;;;;;5064200;28;20024;-59
2021/03/27 12:59:32;;;;;;;6.32;0.70;;;11.70;69.90;;;;;;5066203;28;20567;-59
2021/03/27 13:02:39;;;;;;;5.30;0.98;;;11.50;70.20;;;;;;5072687;28;20031;-59
2021/03/27 13:05:28;;;;;;;10.20;1.02;;;11.40;71.20;;;;;;5005360;28;20033;-59
2021/03/27 13:08:20;;;;;;;4.70;0.80;;;11.60;71.00;;;;;;5062933;28;20047;-59
2021/03/27 13:11:07;;;;;;;4.85;0.93;;;11.60;70.00;;;;;;5050720;28;20509;-57
2021/03/27 13:13:34;;;;;;;2.80;0.80;;;11.40;71.10;;;;;;5052361;28;20041;-63
2021/03/27 13:16:27;;;;;;;2.67;0.60;;;11.10;76.10;;;;;;5053799;28;20478;-63
2021/03/27 13:19:16;;;;;;;5.13;0.90;;;11.40;79.40;;;;;;5043904;28;20049;-60
2021/03/27 13:22:00;;;;;;;3.13;0.60;;;12.00;78.00;;;;;;5016285;28;20056;-59
2021/03/27 13:24:35;;;;;;;4.63;1.10;;;12.00;74.40;;;;;;5015665;28;20497;-60
2021/03/27 13:27:06;;;;;;;4.10;0.65;;;11.60;72.70;;;;;;5016655;28;20026;-66
2021/03/27 13:29:38;;;;;;;2.57;0.60;;;11.40;73.20;;;;;;5022956;28;20117;-60
2021/03/27 13:32:31;;;;;;;6.93;0.80;;;11.30;72.50;;;;;;5044584;28;20040;-61
2021/03/27 13:35:18;;;;;;;5.32;0.82;;;11.10;72.50;;;;;;5043434;28;20041;-58
2021/03/27 13:38:10;;;;;;;2.65;0.93;;;11.00;72.00;;;;;;5025731;28;20017;-60
2021/03/27 13:40:37;;;;;;;;;;;10.70;72.90;;;;;;5027003;28;20036;-61
2021/03/27 13:43:25;;;;;;;11.45;1.17;;;10.60;75.30;;;;;;5026166;28;19940;-66
2021/03/27 13:46:00;;;;;;;6.03;0.77;;;10.30;84.80;;;;;;5026817;28;20025;-59
2021/03/27 13:48:28;;;;;;;3.10;0.50;;;9.60;92.50;;;;;;5041735;28;20028;-60
2021/03/27 13:51:13;;;;;;;4.60;0.85;;;9.50;94.40;;;;;;5023181;28;20452;-60
2021/03/27 13:54:16;;;;;;;4.57;0.60;;;9.20;97.00;;;;;;5043698;28;20030;-62
2021/03/27 13:57:00;;;;;;;3.42;0.77;;;9.00;98.30;;;;;;5048211;28;20497;-60
2021/03/27 13:59:44;;;;;;;1.77;0.77;;;9.00;98.60;;;;;;5052417;28;20032;-60
2021/03/27 14:02:21;;;;;;;3.80;0.70;;;9.20;99.00;;;;;;5054160;28;20061;-65
2021/03/27 14:05:04;;;;;;;2.55;0.40;;;9.00;99.50;;;;;;5037485;28;20025;-59
2021/03/27 14:07:51;;;;;;;5.40;0.95;;;8.50;99.90;;;;;;5053757;28;20280;-60
2021/03/27 14:10:35;;;;;;;4.65;1.38;;;8.50;99.90;;;;;;5034833;28;20060;-61
2021/03/27 14:13:30;;;;;;;3.22;0.60;;;8.50;99.90;;;;;;5053404;28;20032;-57
2021/03/27 14:15:58;;;;;;;2.60;0.50;;;8.70;99.90;;;;;;5053218;28;20063;-59
2021/03/27 14:18:57;;;;;;;2.58;0.75;;;8.70;99.90;;;;;;5052510;28;20124;-59
2021/03/27 14:21:35;;;;;;;2.78;0.40;;;8.60;99.90;;;;;;5034565;28;20454;-59
2021/03/27 14:24:23;;;;;;;1.08;0.50;;;8.70;99.90;;;;;;5053063;28;20033;-62